Overview Statistics Trail Chart Weather Telemetry Raw packets
 

This is the latest recevied weather packets stored in our database for station/object EA4URC-13. If no packets are shown the sender has not sent any weather packets the latest 10 day(s).

<< 1 2 3 4 5 >>
Time Temp. Humidity Pressure Rain* Wind** Luminosity Snow
1788597502 26.11° C 22% 1018.1 hPa - - - -
1788596602 26.11° C 23% 1018.1 hPa - - - -
1788595702 25° C 24% 1018.7 hPa - - - -
1788594802 25° C 24% 1018.4 hPa - - - -
1788593902 24.44° C 25% 1018.8 hPa - - - -
1788593002 23.33° C 26% 1019.2 hPa - - - -
1788592102 23.89° C 26% 1019 hPa - - - -
1788591202 23.33° C 26% 1018.8 hPa - - - -
1788590302 23.33° C 26% 1018.7 hPa - - - -
1788588501 22.22° C 26% 1019 hPa - - - -
1788587601 22.22° C 27% 1019 hPa - - - -
1788586701 21.67° C 28% 1019.1 hPa - - - -
1788585801 21.67° C 28% 1018.9 hPa - - - -
1788584901 21.11° C 28% 1018.9 hPa - - - -
1788584001 22.22° C 27% 1018.5 hPa - - - -
1788583101 22.22° C 28% 1018.4 hPa - - - -
1788582201 21.67° C 28% 1018.6 hPa - - - -
1788581301 22.22° C 28% 1018.6 hPa - - - -
1788580401 22.22° C 28% 1018.8 hPa - - - -
1788579501 22.22° C 28% 1018.8 hPa - - - -
1788578601 22.22° C 29% 1018.7 hPa - - - -
1788577701 22.22° C 28% 1018.7 hPa - - - -
1788576801 22.78° C 30% 1018.6 hPa - - - -
1788575901 22.78° C 30% 1018.7 hPa - - - -
1788575001 22.78° C 30% 1018.7 hPa - - - -

* Rain since midnight (hover to see other rain measurements)
** Current wind speed in m/s (hover to see current wind gust speed)